Time;durP1;ratioP1;P1;durP2;ratioP2;P2;SDS_P1;SDS_P2;PMS_P1;PMS_P2;Temp;Humidity;BMP_temperature;BMP_pressure;BME280_temperature;BME280_humidity;BME280_pressure;Samples;Min_cycle;Max_cycle;Signal;HPM_P1;HPM_P2
2023/03/10 00:02:29;;;;;;;19.20;13.70;;;;;;;12.75;84.14;98619.66;5117332;28;20654;-63
2023/03/10 00:04:56;;;;;;;19.83;12.23;;;;;;;12.67;84.60;98619.19;5117577;28;20559;-61
2023/03/10 00:07:23;;;;;;;17.17;11.80;;;;;;;12.75;84.79;98645.69;5113959;28;20201;-61
2023/03/10 00:09:51;;;;;;;17.37;11.80;;;;;;;12.75;85.11;98656.09;5113742;28;20229;-61
2023/03/10 00:12:18;;;;;;;17.43;11.40;;;;;;;12.69;85.43;98646.00;5113281;28;20209;-63
2023/03/10 00:14:45;;;;;;;18.93;11.73;;;;;;;12.67;86.05;98632.22;5113072;28;20222;-63
2023/03/10 00:17:12;;;;;;;21.40;11.37;;;;;;;12.68;86.24;98633.88;5112977;28;20194;-63
2023/03/10 00:19:39;;;;;;;17.07;10.83;;;;;;;12.56;86.73;98621.50;5113239;28;20199;-63
2023/03/10 00:22:06;;;;;;;24.13;11.73;;;;;;;12.56;87.55;98634.50;5112861;28;20193;-63
2023/03/10 00:24:33;;;;;;;18.23;11.63;;;;;;;12.47;88.01;98620.22;5112769;28;20190;-63
2023/03/10 00:27:01;;;;;;;17.77;12.60;;;;;;;12.36;89.23;98618.16;5112619;28;20209;-60
2023/03/10 00:29:28;;;;;;;22.27;13.17;;;;;;;12.22;89.46;98619.75;5112718;28;20230;-61
2023/03/10 00:31:55;;;;;;;19.33;13.53;;;;;;;12.16;90.01;98617.47;5113573;28;20569;-61
2023/03/10 00:34:22;;;;;;;25.80;14.87;;;;;;;12.10;90.54;98621.19;5113070;28;20219;-63
2023/03/10 00:36:49;;;;;;;22.07;14.47;;;;;;;12.00;91.05;98612.16;5113286;28;20590;-61
2023/03/10 00:39:16;;;;;;;21.83;15.33;;;;;;;12.02;91.38;98625.94;5112932;28;20573;-62
2023/03/10 00:41:43;;;;;;;22.57;15.47;;;;;;;12.02;91.47;98620.75;5113094;28;20202;-61
2023/03/10 00:44:12;;;;;;;28.67;16.60;;;;;;;12.02;91.39;98620.75;5113010;28;20208;-61
2023/03/10 00:46:38;;;;;;;22.53;15.50;;;;;;;11.97;91.92;98620.09;5112864;28;20199;-61
2023/03/10 00:49:06;;;;;;;29.00;15.23;;;;;;;11.85;92.94;98625.94;5072312;28;20210;-62
2023/03/10 00:51:32;;;;;;;22.90;16.13;;;;;;;11.89;93.02;98632.66;5072286;28;20215;-61
2023/03/10 00:54:00;;;;;;;25.17;15.97;;;;;;;11.97;92.51;98627.91;5072118;28;20223;-60
2023/03/10 00:56:29;;;;;;;22.00;14.83;;;;;;;11.88;93.32;98620.56;5072289;28;20253;-60
2023/03/10 00:58:57;;;;;;;27.53;16.70;;;;;;;11.83;94.36;98622.56;5072441;28;20227;-62
2023/03/10 01:01:27;;;;;;;24.43;15.83;;;;;;;11.85;93.84;98625.94;5072008;28;20999;-61
2023/03/10 01:03:57;;;;;;;23.27;15.03;;;;;;;11.90;93.73;98621.34;5072093;28;20204;-60
2023/03/10 01:06:24;;;;;;;20.93;15.10;;;;;;;11.91;93.39;98621.25;5072082;28;20196;-60
2023/03/10 01:08:51;;;;;;;23.30;14.87;;;;;;;11.90;93.63;98618.72;5072322;28;20547;-61
2023/03/10 01:11:21;;;;;;;25.40;14.97;;;;;;;11.93;93.21;98618.59;5071798;28;20200;-61
2023/03/10 01:13:49;;;;;;;24.03;16.07;;;;;;;11.95;92.94;98621.97;5072057;28;20587;-61
2023/03/10 01:16:16;;;;;;;19.37;14.57;;;;;;;12.01;92.00;98626.84;5072053;28;20678;-61
2023/03/10 01:18:45;;;;;;;24.73;15.67;;;;;;;12.10;91.55;98620.34;5070777;28;20641;-60
2023/03/10 01:21:17;;;;;;;23.50;13.90;;;;;;;12.02;91.69;98614.69;5071733;28;20646;-60
2023/03/10 01:23:44;;;;;;;23.30;14.93;;;;;;;12.08;91.51;98623.03;5071868;28;20202;-62
2023/03/10 01:26:11;;;;;;;22.87;15.30;;;;;;;12.06;91.43;98614.47;5071574;28;20200;-60
2023/03/10 01:28:38;;;;;;;23.20;14.60;;;;;;;11.98;92.02;98611.41;5071684;28;20210;-61
2023/03/10 01:31:06;;;;;;;22.77;15.00;;;;;;;11.85;93.00;98608.53;5071432;28;20199;-61
2023/03/10 01:33:34;;;;;;;23.07;15.07;;;;;;;11.77;93.89;98612.44;5071540;28;20208;-61
2023/03/10 01:36:02;;;;;;;21.40;15.47;;;;;;;11.80;93.80;98610.53;5071487;28;20231;-63
2023/03/10 01:38:29;;;;;;;19.93;14.13;;;;;;;11.84;93.40;98613.84;5071459;28;20202;-62
2023/03/10 01:40:56;;;;;;;27.43;15.30;;;;;;;11.82;93.41;98611.31;5071628;28;20692;-62
2023/03/10 01:43:44;;;;;;;20.20;13.53;;;;;;;11.78;94.05;98619.31;5071264;28;20690;-63
2023/03/10 01:46:46;;;;;;;20.33;14.40;;;;;;;11.81;93.65;98619.19;5066724;28;20196;-63
2023/03/10 01:49:20;;;;;;;22.83;15.07;;;;;;;11.83;93.62;98610.41;5071051;28;20246;-62
2023/03/10 01:51:51;;;;;;;22.63;14.47;;;;;;;11.76;93.89;98605.56;5071404;28;20559;-62
2023/03/10 01:54:24;;;;;;;23.33;14.87;;;;;;;11.70;94.78;98600.63;5071045;28;20224;-62
2023/03/10 01:56:53;;;;;;;19.13;14.07;;;;;;;11.68;94.92;98612.84;5071574;28;20591;-62
2023/03/10 01:59:22;;;;;;;21.80;14.97;;;;;;;11.61;94.70;98591.53;5071051;28;20648;-61
2023/03/10 02:01:51;;;;;;;24.07;15.00;;;;;;;11.63;95.25;98613.91;5071426;28;20542;-60
2023/03/10 02:04:23;;;;;;;19.57;14.23;;;;;;;11.75;94.61;98603.81;5070738;28;20200;-60
2023/03/10 02:06:52;;;;;;;21.47;14.50;;;;;;;11.69;94.67;98614.53;5070971;28;20710;-61
2023/03/10 02:09:20;;;;;;;21.87;15.33;;;;;;;11.60;95.58;98614.06;5070881;28;20790;-63
2023/03/10 02:11:49;;;;;;;20.60;14.33;;;;;;;11.64;95.04;98607.78;5071259;28;20679;-62
2023/03/10 02:14:17;;;;;;;27.47;15.83;;;;;;;11.67;94.81;98608.56;5070747;28;20203;-60
2023/03/10 02:16:45;;;;;;;21.90;15.33;;;;;;;11.68;94.52;98599.84;5070773;28;20204;-60
2023/03/10 02:19:28;;;;;;;28.33;15.93;;;;;;;11.69;94.63;98612.78;5070406;28;20199;-62
2023/03/10 02:22:04;;;;;;;23.40;14.87;;;;;;;11.74;94.64;98613.38;5070752;28;20202;-62
2023/03/10 02:24:41;;;;;;;17.80;14.47;;;;;;;11.72;94.39;98620.44;5070920;28;20715;-62
2023/03/10 02:27:18;;;;;;;21.57;14.73;;;;;;;11.61;95.12;98622.72;5070741;28;20249;-62
2023/03/10 02:29:50;;;;;;;24.80;15.73;;;;;;;11.60;95.14;98621.84;5070211;28;20644;-62
2023/03/10 02:32:18;;;;;;;19.93;15.33;;;;;;;11.61;95.25;98623.56;5070609;28;20686;-60
2023/03/10 02:34:45;;;;;;;29.33;15.87;;;;;;;11.57;95.25;98622.00;5070437;28;20226;-60
2023/03/10 02:37:20;;;;;;;22.53;14.97;;;;;;;11.56;95.08;98620.31;5070435;28;20203;-62
2023/03/10 02:39:47;;;;;;;26.93;16.13;;;;;;;11.55;95.20;98623.81;5070575;28;20222;-61
2023/03/10 02:42:15;;;;;;;23.00;15.40;;;;;;;11.58;94.96;98628.88;5070282;28;20204;-59
2023/03/10 02:44:44;;;;;;;25.33;16.10;;;;;;;11.52;96.37;98636.09;5070642;28;20652;-59
2023/03/10 02:47:11;;;;;;;31.97;15.70;;;;;;;11.27;99.24;98632.06;5078615;28;20226;-60
2023/03/10 02:49:39;;;;;;;26.90;15.57;;;;;;;11.25;100.00;98646.03;5111006;28;20203;-62
2023/03/10 02:52:12;;;;;;;25.90;15.97;;;;;;;11.33;99.87;98649.09;5110896;28;20194;-60
2023/03/10 02:54:39;;;;;;;26.87;15.47;;;;;;;11.28;100.00;98641.53;5110659;28;20223;-60
2023/03/10 02:57:06;;;;;;;26.53;16.73;;;;;;;11.18;100.00;98657.59;5110690;28;20195;-61
2023/03/10 02:59:33;;;;;;;29.10;16.83;;;;;;;11.18;100.00;98657.59;5110690;28;20195;-61
2023/03/10 03:02:01;;;;;;;28.20;16.07;;;;;;;11.15;100.00;98657.75;5110740;28;20195;-62
2023/03/10 03:04:28;;;;;;;23.07;16.00;;;;;;;11.09;100.00;98663.19;5110843;28;20191;-62
2023/03/10 03:06:55;;;;;;;25.00;15.37;;;;;;;10.91;100.00;98657.91;5110888;28;20198;-62
2023/03/10 03:09:22;;;;;;;23.83;13.63;;;;;;;10.82;100.00;98660.06;5110645;28;20198;-61
2023/03/10 03:11:49;;;;;;;16.87;13.67;;;;;;;10.70;100.00;98652.81;5110713;28;20602;-60
2023/03/10 03:14:16;;;;;;;21.57;14.57;;;;;;;10.57;100.00;98649.91;5110872;28;20191;-62
2023/03/10 03:16:42;;;;;;;18.87;14.13;;;;;;;10.57;100.00;98654.25;5110749;28;20601;-63
2023/03/10 03:19:11;;;;;;;20.23;14.83;;;;;;;10.57;100.00;98656.84;5110602;28;20697;-61
2023/03/10 03:21:38;;;;;;;22.70;14.77;;;;;;;10.50;100.00;98644.09;5110434;28;20202;-61
2023/03/10 03:24:05;;;;;;;17.80;13.57;;;;;;;10.46;100.00;98650.34;5110567;28;20191;-63
2023/03/10 03:26:32;;;;;;;19.00;13.67;;;;;;;10.37;100.00;98647.31;5110672;28;20205;-61
2023/03/10 03:28:59;;;;;;;20.20;14.87;;;;;;;10.37;100.00;98642.97;5110702;28;20583;-62
2023/03/10 03:31:26;;;;;;;22.07;14.73;;;;;;;10.38;100.00;98646.41;5109665;28;20282;-63
2023/03/10 03:33:53;;;;;;;21.40;14.60;;;;;;;10.39;100.00;98648.06;5109931;28;20596;-60
2023/03/10 03:36:21;;;;;;;19.13;13.80;;;;;;;10.32;100.00;98644.03;5109279;28;20222;-61
2023/03/10 03:38:48;;;;;;;20.27;13.73;;;;;;;10.37;100.00;98639.53;5109857;28;20195;-62
2023/03/10 03:41:15;;;;;;;19.00;13.80;;;;;;;10.29;100.00;98636.38;5109752;28;20622;-62
2023/03/10 03:43:42;;;;;;;18.47;13.50;;;;;;;10.44;100.00;98633.16;5113577;28;20191;-62
2023/03/10 03:46:09;;;;;;;18.07;13.40;;;;;;;10.51;100.00;98631.97;5113593;28;20187;-60
2023/03/10 03:48:37;;;;;;;22.73;12.87;;;;;;;10.53;100.00;98641.41;5113236;28;20236;-60
2023/03/10 03:51:04;;;;;;;19.27;12.73;;;;;;;10.57;100.00;98641.28;5113426;28;20287;-60
2023/03/10 03:53:33;;;;;;;20.40;14.33;;;;;;;10.49;100.00;98639.00;5113489;28;20201;-61
2023/03/10 03:56:00;;;;;;;19.27;14.10;;;;;;;10.44;100.00;98638.34;5113270;28;20222;-60
2023/03/10 03:58:27;;;;;;;16.23;13.00;;;;;;;10.51;100.00;98640.59;5113258;28;20199;-61
2023/03/10 04:00:54;;;;;;;16.43;13.27;;;;;;;10.52;100.00;98637.09;5113393;28;20198;-61
2023/03/10 04:03:21;;;;;;;22.77;14.63;;;;;;;10.51;100.00;98639.75;5112709;28;20194;-61
2023/03/10 04:05:48;;;;;;;20.00;14.43;;;;;;;10.63;100.00;98639.25;5113104;28;20201;-61
2023/03/10 04:08:15;;;;;;;22.43;15.23;;;;;;;10.68;100.00;98629.53;5113020;28;20372;-62
2023/03/10 04:10:49;;;;;;;21.87;14.30;;;;;;;10.73;100.00;98637.94;5113104;28;20612;-62
2023/03/10 04:13:16;;;;;;;22.13;14.90;;;;;;;10.74;100.00;98633.59;5112826;28;20589;-63
2023/03/10 04:15:43;;;;;;;19.57;14.17;;;;;;;10.72;100.00;98628.47;5112613;28;20743;-63
2023/03/10 04:18:10;;;;;;;24.63;14.60;;;;;;;10.77;100.00;98629.13;5112534;28;20259;-63
2023/03/10 04:20:37;;;;;;;28.63;14.50;;;;;;;10.68;100.00;98621.72;5112897;28;20194;-63
2023/03/10 04:23:04;;;;;;;22.23;14.90;;;;;;;10.81;100.00;98630.69;5112699;28;20198;-63
2023/03/10 04:25:31;;;;;;;23.47;15.33;;;;;;;10.89;100.00;98638.97;5112803;28;20696;-62
2023/03/10 04:28:00;;;;;;;21.87;14.73;;;;;;;10.96;100.00;98643.88;5112967;28;20373;-62
2023/03/10 04:30:28;;;;;;;18.83;14.73;;;;;;;10.95;100.00;98637.03;5112476;28;20195;-63
2023/03/10 04:32:57;;;;;;;20.73;15.23;;;;;;;10.91;100.00;98637.16;5112425;28;20290;-62
2023/03/10 04:35:24;;;;;;;20.57;14.17;;;;;;;10.83;100.00;98635.81;5112608;28;20716;-61
2023/03/10 04:37:51;;;;;;;23.57;14.97;;;;;;;10.76;100.00;98632.63;5112440;28;20290;-61
2023/03/10 04:40:19;;;;;;;24.83;14.83;;;;;;;10.87;100.00;98635.59;5112235;28;20191;-61
2023/03/10 04:42:46;;;;;;;21.00;15.40;;;;;;;10.91;100.00;98641.50;5112341;28;20197;-62
2023/03/10 04:45:14;;;;;;;20.93;14.10;;;;;;;11.00;100.00;98640.25;5112516;28;20199;-61
2023/03/10 04:47:41;;;;;;;20.87;13.97;;;;;;;10.99;100.00;98642.00;5112363;28;20226;-62
2023/03/10 04:50:11;;;;;;;19.43;14.23;;;;;;;11.06;100.00;98646.00;5112332;28;20199;-62
2023/03/10 04:52:38;;;;;;;20.77;14.87;;;;;;;11.11;100.00;98643.19;5111885;28;20348;-62
2023/03/10 04:55:05;;;;;;;19.90;15.47;;;;;;;11.14;100.00;98649.09;5112039;28;20285;-62
2023/03/10 04:57:33;;;;;;;23.57;16.20;;;;;;;11.24;100.00;98642.59;5105818;28;20223;-62
2023/03/10 05:00:00;;;;;;;24.93;15.80;;;;;;;11.27;100.00;98633.81;5091082;28;20219;-61
2023/03/10 05:02:28;;;;;;;25.47;16.60;;;;;;;11.26;100.00;98624.34;5107493;28;20605;-62
2023/03/10 05:04:55;;;;;;;24.27;16.80;;;;;;;11.23;100.00;98632.25;5111336;28;20221;-65
2023/03/10 05:07:22;;;;;;;25.17;17.10;;;;;;;11.29;100.00;98625.03;5112015;28;20228;-66
2023/03/10 05:09:49;;;;;;;24.87;16.73;;;;;;;11.42;100.00;98638.28;5111578;28;20313;-65
2023/03/10 05:12:16;;;;;;;36.77;18.67;;;;;;;11.40;100.00;98634.91;5111407;28;20254;-64
2023/03/10 05:14:43;;;;;;;33.37;16.97;;;;;;;11.47;100.00;98633.75;5110474;28;20300;-62
2023/03/10 05:17:10;;;;;;;33.40;18.37;;;;;;;11.56;100.00;98630.72;5110265;28;20237;-65
2023/03/10 05:19:38;;;;;;;28.53;16.77;;;;;;;11.56;100.00;98633.31;5111687;28;20258;-65
2023/03/10 05:22:06;;;;;;;27.33;16.20;;;;;;;11.51;100.00;98617.06;5110733;28;20210;-65
2023/03/10 05:24:34;;;;;;;23.60;16.50;;;;;;;11.72;100.00;98630.00;5110565;28;20221;-60
2023/03/10 05:27:02;;;;;;;28.13;17.17;;;;;;;11.59;99.97;98619.31;5111248;27;20214;-64
2023/03/10 05:29:29;;;;;;;25.83;16.90;;;;;;;11.69;100.00;98630.97;5131634;27;20237;-60
2023/03/10 05:31:56;;;;;;;29.13;17.20;;;;;;;11.67;100.00;98621.56;5131316;27;20757;-64
2023/03/10 05:34:25;;;;;;;26.30;17.27;;;;;;;11.76;99.95;98639.34;5131447;27;20253;-60
2023/03/10 05:36:55;;;;;;;29.00;18.07;;;;;;;11.69;100.00;98635.34;5131194;27;20229;-64
2023/03/10 05:39:22;;;;;;;36.07;17.70;;;;;;;11.70;100.00;98643.06;5130677;27;20213;-64
2023/03/10 05:41:49;;;;;;;35.30;19.57;;;;;;;11.79;100.00;98631.41;5131285;27;20316;-64
2023/03/10 05:44:16;;;;;;;32.53;19.37;;;;;;;11.93;98.87;98629.84;5109857;27;20207;-65
2023/03/10 05:46:43;;;;;;;38.83;21.20;;;;;;;11.98;98.70;98627.00;5110375;28;20190;-64
2023/03/10 05:49:10;;;;;;;35.53;22.50;;;;;;;11.97;98.35;98631.34;5109739;28;20202;-65
2023/03/10 05:51:36;;;;;;;31.57;20.90;;;;;;;12.03;98.02;98627.63;5110923;28;20194;-62
2023/03/10 05:54:05;;;;;;;37.97;21.07;;;;;;;12.06;97.78;98624.03;5111339;28;20216;-61
2023/03/10 05:56:32;;;;;;;34.60;20.87;;;;;;;12.07;97.91;98621.38;5111131;28;20227;-65
2023/03/10 05:58:59;;;;;;;36.47;20.47;;;;;;;12.19;97.83;98619.94;5111055;28;20194;-61
2023/03/10 06:01:26;;;;;;;34.77;19.60;;;;;;;12.34;97.19;98614.78;5110764;28;20195;-61
2023/03/10 06:03:53;;;;;;;43.20;20.70;;;;;;;12.45;96.00;98606.44;5110737;28;20190;-61
2023/03/10 06:06:20;;;;;;;50.70;21.47;;;;;;;12.59;95.73;98619.59;5109981;28;20590;-61
2023/03/10 06:08:47;;;;;;;65.07;23.33;;;;;;;12.59;95.04;98598.78;5110790;28;20202;-65
2023/03/10 06:11:15;;;;;;;43.70;22.07;;;;;;;12.81;93.88;98610.66;5110699;28;20213;-61
2023/03/10 06:13:42;;;;;;;47.70;22.00;;;;;;;12.93;92.93;98608.25;5110822;28;20689;-60
2023/03/10 06:16:10;;;;;;;57.00;25.70;;;;;;;13.01;92.30;98608.69;5110370;28;20223;-66
2023/03/10 06:18:37;;;;;;;48.80;23.67;;;;;;;13.14;90.95;98608.91;5110724;28;20560;-61
2023/03/10 06:21:06;;;;;;;72.47;27.43;;;;;;;13.29;89.42;98609.88;5110521;28;20194;-66
2023/03/10 06:23:33;;;;;;;77.03;27.97;;;;;;;13.34;89.47;98610.44;5110413;28;20234;-61
2023/03/10 06:26:04;;;;;;;76.70;29.83;;;;;;;13.47;90.53;98613.22;5110289;28;20190;-61
2023/03/10 06:28:35;;;;;;;76.53;27.80;;;;;;;13.70;89.03;98612.78;5110305;28;20202;-67
2023/03/10 06:31:04;;;;;;;70.43;26.13;;;;;;;14.32;85.58;98604.00;5110519;28;20203;-66
2023/03/10 06:33:32;;;;;;;67.73;26.47;;;;;;;15.18;79.05;98613.59;5110287;28;20194;-64
2023/03/10 06:35:59;;;;;;;89.57;28.43;;;;;;;16.07;72.92;98615.81;5109937;28;20218;-64
2023/03/10 06:38:26;;;;;;;96.93;29.07;;;;;;;16.69;68.92;98614.31;5110041;28;20213;-64
2023/03/10 06:40:54;;;;;;;65.37;27.27;;;;;;;17.16;64.78;98620.66;5110158;28;20198;-65
2023/03/10 06:43:21;;;;;;;78.43;25.93;;;;;;;16.79;64.13;98610.09;5110054;28;20731;-58
2023/03/10 06:45:50;;;;;;;72.37;25.73;;;;;;;17.05;63.92;98610.91;5109999;28;20187;-59
2023/03/10 06:48:17;;;;;;;67.60;26.17;;;;;;;17.30;62.44;98618.75;5109756;28;20741;-59
2023/03/10 06:50:46;;;;;;;74.07;31.97;;;;;;;18.06;59.65;98626.38;5110258;28;20198;-59
2023/03/10 06:53:14;;;;;;;78.70;34.92;;;;;;;18.94;56.68;98629.41;5109798;28;20202;-58
2023/03/10 06:55:41;;;;;;;93.03;39.10;;;;;;;19.43;54.04;98625.56;5110018;28;20202;-58
2023/03/10 06:58:08;;;;;;;83.47;38.45;;;;;;;20.56;51.25;98625.97;5109888;28;20198;-58
2023/03/10 07:00:35;;;;;;;97.63;46.72;;;;;;;21.94;46.69;98622.81;5109860;28;20190;-65
2023/03/10 07:03:03;;;;;;;91.40;43.95;;;;;;;22.81;44.00;98626.28;5110438;28;20199;-65
2023/03/10 07:05:30;;;;;;;100.05;44.85;;;;;;;23.13;43.26;98628.59;5110320;28;20195;-59
2023/03/10 07:07:57;;;;;;;81.43;39.85;;;;;;;22.98;43.12;98622.91;5110039;28;20572;-59
2023/03/10 07:10:24;;;;;;;80.63;36.05;;;;;;;22.30;43.94;98616.88;5109761;28;20202;-65
2023/03/10 07:12:53;;;;;;;72.85;32.28;;;;;;;21.60;45.36;98614.41;5109841;28;20191;-65
2023/03/10 07:15:22;;;;;;;68.50;28.50;;;;;;;21.88;45.26;98611.00;5109499;28;20199;-59
2023/03/10 07:17:49;;;;;;;48.75;24.70;;;;;;;22.18;44.11;98612.69;5113977;28;20222;-64
2023/03/10 07:20:18;;;;;;;62.63;36.45;;;;;;;21.91;44.72;98612.50;5113764;28;20268;-65
2023/03/10 07:22:45;;;;;;;82.57;41.95;;;;;;;21.99;44.86;98604.78;5114223;28;20199;-59
2023/03/10 07:25:12;;;;;;;75.40;44.50;;;;;;;21.70;44.98;98616.09;5113851;28;20221;-59
2023/03/10 07:27:39;;;;;;;55.10;30.70;;;;;;;21.56;45.05;98613.00;5113714;28;20209;-59
2023/03/10 07:30:07;;;;;;;46.03;28.13;;;;;;;21.19;46.19;98618.03;5114049;28;20277;-58
2023/03/10 07:32:34;;;;;;;43.72;23.88;;;;;;;21.05;46.87;98621.81;5113680;28;20202;-58
2023/03/10 07:35:01;;;;;;;41.38;20.30;;;;;;;20.72;47.62;98612.34;5113539;28;20281;-64
2023/03/10 07:37:30;;;;;;;39.58;18.48;;;;;;;20.21;49.20;98607.78;5113314;28;20233;-64
2023/03/10 07:39:57;;;;;;;25.73;16.40;;;;;;;19.33;51.95;98609.69;5113460;28;20290;-65
2023/03/10 07:42:24;;;;;;;34.75;17.60;;;;;;;18.66;54.44;98593.88;5113519;28;20721;-64
2023/03/10 07:44:51;;;;;;;27.05;16.80;;;;;;;18.35;54.71;98615.50;5113554;28;20277;-64
2023/03/10 07:47:17;;;;;;;26.08;18.27;;;;;;;18.01;56.18;98610.13;5113252;28;20233;-65
2023/03/10 07:49:45;;;;;;;24.88;16.50;;;;;;;17.83;56.59;98613.28;5112262;28;20207;-65
2023/03/10 07:52:13;;;;;;;26.02;15.75;;;;;;;17.72;56.54;98616.66;5106332;28;20237;-65
2023/03/10 07:54:43;;;;;;;16.48;13.20;;;;;;;17.63;55.30;98612.06;5099865;28;20584;-64
2023/03/10 07:57:10;;;;;;;23.60;14.57;;;;;;;17.52;56.24;98618.06;5112240;28;20720;-64
2023/03/10 07:59:37;;;;;;;22.83;15.25;;;;;;;17.53;57.54;98611.88;5112011;28;20588;-66
2023/03/10 08:02:04;;;;;;;33.95;17.95;;;;;;;17.48;58.44;98618.41;5110920;28;20191;-67
2023/03/10 08:04:31;;;;;;;27.38;17.15;;;;;;;17.38;58.49;98620.84;5110393;28;20231;-66
2023/03/10 08:07:00;;;;;;;23.00;12.93;;;;;;;17.26;58.33;98605.97;5110537;28;20194;-67
2023/03/10 08:09:28;;;;;;;17.70;12.02;;;;;;;17.22;59.16;98607.97;5110139;28;20708;-67
2023/03/10 08:11:58;;;;;;;27.00;13.10;;;;;;;17.31;59.89;98607.31;5110420;28;20191;-67
2023/03/10 08:14:28;;;;;;;23.52;13.75;;;;;;;17.23;60.71;98603.56;5110195;28;20224;-61
2023/03/10 08:16:55;;;;;;;20.20;14.17;;;;;;;17.03;61.83;98604.97;5111728;28;20580;-61
2023/03/10 08:19:22;;;;;;;22.57;13.43;;;;;;;17.09;61.59;98595.81;5111394;28;20297;-66
2023/03/10 08:21:49;;;;;;;39.27;16.63;;;;;;;17.18;62.04;98596.00;5092136;28;20200;-66
2023/03/10 08:24:16;;;;;;;26.77;17.20;;;;;;;17.19;61.96;98586.34;5092522;28;20191;-66
2023/03/10 08:26:43;;;;;;;23.92;14.60;;;;;;;17.04;62.38;98590.91;5092543;28;20191;-66
2023/03/10 08:29:11;;;;;;;26.33;12.70;;;;;;;16.91;63.37;98592.69;5091362;28;20199;-66
2023/03/10 08:31:38;;;;;;;20.63;10.53;;;;;;;16.94;63.82;98585.44;5092236;28;20205;-65
2023/03/10 08:34:05;;;;;;;19.23;9.27;;;;;;;16.80;63.23;98584.75;5092324;28;20552;-68
2023/03/10 08:36:32;;;;;;;21.70;13.23;;;;;;;16.65;64.51;98576.13;5091779;28;20223;-66
2023/03/10 08:39:01;;;;;;;20.13;12.80;;;;;;;16.82;64.17;98583.66;5095651;28;20187;-67
2023/03/10 08:41:31;;;;;;;19.20;12.27;;;;;;;16.90;64.56;98580.53;5112517;28;20198;-63
2023/03/10 08:43:59;;;;;;;16.07;12.60;;;;;;;17.03;64.94;98576.13;5112575;28;20698;-62
2023/03/10 08:46:32;;;;;;;18.67;12.13;;;;;;;16.94;66.61;98566.25;5112120;28;20201;-68
2023/03/10 08:48:59;;;;;;;15.57;12.27;;;;;;;16.92;67.23;98562.94;5112112;28;20360;-63
2023/03/10 08:51:28;;;;;;;18.03;12.07;;;;;;;16.88;67.57;98553.59;5112484;28;20714;-68
2023/03/10 08:53:55;;;;;;;22.17;11.40;;;;;;;16.67;66.43;98556.75;5112454;28;20207;-68
2023/03/10 08:56:23;;;;;;;15.17;11.53;;;;;;;16.69;66.26;98556.66;5112032;28;20205;-67
2023/03/10 08:58:53;;;;;;;18.67;13.07;;;;;;;16.36;69.20;98551.06;5112382;28;20270;-62
2023/03/10 09:01:19;;;;;;;15.93;11.93;;;;;;;16.59;68.70;98545.09;5111696;28;20632;-68
2023/03/10 09:03:48;;;;;;;19.80;12.50;;;;;;;16.95;66.03;98545.19;5112382;28;20205;-63
2023/03/10 09:06:15;;;;;;;22.23;10.90;;;;;;;17.16;62.84;98534.13;5112187;28;20233;-68
2023/03/10 09:08:43;;;;;;;13.43;10.63;;;;;;;17.61;60.63;98553.56;5112151;28;20197;-63
2023/03/10 09:11:14;;;;;;;13.57;10.13;;;;;;;17.78;59.47;98558.47;5111954;28;20610;-67
2023/03/10 09:13:41;;;;;;;8.60;7.83;;;;;;;17.73;58.09;98544.84;5111918;28;20554;-62
2023/03/10 09:16:08;;;;;;;10.55;9.55;;;;;;;17.93;57.68;98539.00;5110583;28;20285;-63
2023/03/10 09:18:35;;;;;;;16.40;9.87;;;;;;;17.97;57.93;98531.69;5111405;28;20222;-66
2023/03/10 09:21:03;;;;;;;11.10;8.70;;;;;;;18.15;56.71;98525.09;5108533;28;20229;-68
2023/03/10 09:23:30;;;;;;;15.68;8.60;;;;;;;18.25;56.06;98525.22;5110898;28;20222;-68
2023/03/10 09:25:57;;;;;;;11.15;7.47;;;;;;;18.38;55.62;98515.47;5111202;28;20230;-67
2023/03/10 09:28:24;;;;;;;10.55;6.95;;;;;;;18.48;55.27;98517.25;5111286;28;20241;-68
2023/03/10 09:30:53;;;;;;;13.32;8.40;;;;;;;18.57;55.23;98515.72;5110219;28;20218;-65
2023/03/10 09:33:22;;;;;;;11.70;7.53;;;;;;;18.62;54.53;98510.16;5111534;28;20701;-68
2023/03/10 09:35:50;;;;;;;10.05;8.18;;;;;;;18.55;53.80;98501.84;5112242;27;20219;-69
2023/03/10 09:38:18;;;;;;;9.93;7.45;;;;;;;18.49;53.54;98497.09;5111590;28;20210;-70
2023/03/10 09:40:50;;;;;;;7.45;6.85;;;;;;;18.44;53.42;98500.06;5110893;28;20191;-62
2023/03/10 09:43:20;;;;;;;7.10;6.47;;;;;;;18.17;53.96;98496.09;5111282;28;20221;-71
2023/03/10 09:45:53;;;;;;;7.80;7.00;;;;;;;18.02;55.18;98487.56;5112144;28;20199;-71
2023/03/10 09:48:44;;;;;;;10.18;6.80;;;;;;;18.02;55.87;98480.53;5110811;28;20639;-71
2023/03/10 09:51:16;;;;;;;10.35;7.18;;;;;;;18.14;56.14;98481.38;5111200;28;20576;-71
2023/03/10 09:54:07;;;;;;;11.32;7.65;;;;;;;17.97;56.88;98477.41;5111026;28;20285;-70
2023/03/10 09:56:36;;;;;;;10.77;7.93;;;;;;;17.79;58.27;98463.03;5110997;28;20670;-70
2023/03/10 09:59:09;;;;;;;9.57;7.57;;;;;;;17.66;58.78;98444.75;5111425;28;20566;-71
2023/03/10 10:01:40;;;;;;;9.97;8.23;;;;;;;17.74;59.05;98439.75;5110936;28;20190;-62
2023/03/10 10:04:11;;;;;;;9.03;8.13;;;;;;;17.84;59.54;98428.56;5110891;28;20746;-71
2023/03/10 10:06:41;;;;;;;10.63;8.52;;;;;;;18.03;59.27;98437.56;5110777;28;20198;-70
2023/03/10 10:09:17;;;;;;;11.30;8.90;;;;;;;17.98;59.36;98433.59;5110645;28;20205;-62
2023/03/10 10:11:44;;;;;;;12.95;9.07;;;;;;;18.02;59.52;98435.06;5110781;28;20577;-62
2023/03/10 10:14:18;;;;;;;11.00;9.35;;;;;;;18.35;59.13;98436.88;5110283;28;20196;-63
2023/03/10 10:16:53;;;;;;;14.75;12.75;;;;;;;18.50;59.46;98435.69;5110763;28;20714;-62
2023/03/10 10:19:23;;;;;;;11.50;10.30;;;;;;;18.64;59.06;98417.06;5110705;28;20197;-62
2023/03/10 10:21:57;;;;;;;12.82;9.40;;;;;;;18.66;59.09;98412.53;5110743;28;20244;-62
2023/03/10 10:24:25;;;;;;;10.18;8.65;;;;;;;18.90;58.29;98414.16;5110443;28;20216;-62
2023/03/10 10:26:52;;;;;;;7.75;7.13;;;;;;;18.95;57.23;98399.69;5110437;28;20194;-63
2023/03/10 10:29:23;;;;;;;8.68;7.63;;;;;;;19.20;56.61;98404.59;5110474;28;20225;-63
2023/03/10 10:32:07;;;;;;;7.35;5.88;;;;;;;19.30;55.47;98404.69;5110807;28;20234;-71
2023/03/10 10:34:35;;;;;;;8.27;6.28;;;;;;;19.34;55.46;98379.81;5110684;28;20190;-62
2023/03/10 10:37:02;;;;;;;6.03;5.63;;;;;;;19.54;54.90;98376.38;5110207;28;20318;-62
2023/03/10 10:39:35;;;;;;;7.97;6.07;;;;;;;19.49;55.46;98367.22;5110426;28;20705;-62
2023/03/10 10:42:20;;;;;;;7.90;5.90;;;;;;;19.78;54.94;98362.13;5110474;28;20747;-62
2023/03/10 10:44:47;;;;;;;6.22;5.78;;;;;;;19.78;54.13;98348.97;5108884;28;20441;-71
2023/03/10 10:47:26;;;;;;;8.30;5.85;;;;;;;19.93;53.96;98347.66;5109747;28;20222;-62
2023/03/10 10:49:53;;;;;;;7.75;5.63;;;;;;;20.02;53.80;98344.22;5110056;28;20194;-63
2023/03/10 10:52:23;;;;;;;6.13;4.88;;;;;;;19.97;53.74;98330.66;5109998;28;20726;-71
2023/03/10 10:54:55;;;;;;;6.35;5.25;;;;;;;20.06;53.65;98314.03;5110377;28;20201;-71
2023/03/10 10:57:25;;;;;;;7.75;5.70;;;;;;;20.08;54.07;98303.38;5110160;28;20347;-71
2023/03/10 10:59:52;;;;;;;6.10;5.60;;;;;;;20.11;54.53;98296.03;5110444;28;20198;-71
2023/03/10 11:02:30;;;;;;;6.72;5.20;;;;;;;20.29;54.54;98288.31;5109959;28;20204;-63
2023/03/10 11:05:12;;;;;;;6.88;4.93;;;;;;;20.23;54.73;98279.13;5110911;28;20198;-63
2023/03/10 11:07:39;;;;;;;11.73;6.05;;;;;;;20.33;54.75;98263.34;5110474;28;20568;-62
2023/03/10 11:10:13;;;;;;;5.50;4.85;;;;;;;20.44;54.29;98265.91;5110068;28;20194;-68
2023/03/10 11:12:54;;;;;;;5.35;4.30;;;;;;;20.39;54.70;98259.38;5110058;28;20666;-69
2023/03/10 11:15:28;;;;;;;5.07;4.68;;;;;;;20.41;54.92;98249.53;5110240;28;20749;-69
2023/03/10 11:18:01;;;;;;;11.02;4.65;;;;;;;20.35;55.26;98234.22;5109018;28;20218;-69
2023/03/10 11:20:32;;;;;;;6.35;4.53;;;;;;;20.43;55.07;98231.81;5109674;28;20210;-69
2023/03/10 11:23:12;;;;;;;7.80;4.10;;;;;;;20.44;54.56;98229.00;5109774;28;20191;-70
2023/03/10 11:25:46;;;;;;;7.22;4.07;;;;;;;20.51;54.72;98229.31;5110222;28;20198;-69